Time;durP1;ratioP1;P1;durP2;ratioP2;P2;SDS_P1;SDS_P2;PMS_P1;PMS_P2;Temp;Humidity;BMP_temperature;BMP_pressure;BME280_temperature;BME280_humidity;BME280_pressure;Samples;Min_cycle;Max_cycle;Signal;HPM_P1;HPM_P2
2022/06/14 00:01:51;;;;;;;9.60;3.05;;;;;;;10.78;79.14;99613.75;8533435;27;20054;-73
2022/06/14 00:06:14;;;;;;;9.80;2.97;;;;;;;10.72;79.27;99606.84;8523824;27;20042;-73
2022/06/14 00:10:37;;;;;;;5.82;3.20;;;;;;;10.67;79.12;99612.31;8493652;27;20039;-73
2022/06/14 00:14:38;;;;;;;4.63;2.25;;;;;;;10.61;79.09;99619.72;8505534;27;20068;-73
2022/06/14 00:18:39;;;;;;;14.20;3.17;;;;;;;10.55;78.96;99621.69;8472028;27;20050;-72
2022/06/14 00:22:40;;;;;;;5.00;2.58;;;;;;;10.56;78.85;99634.09;8528048;27;20063;-73
2022/06/14 00:26:41;;;;;;;6.80;2.78;;;;;;;10.55;78.50;99620.88;8520200;27;20149;-73
2022/06/14 00:30:45;;;;;;;9.20;2.72;;;;;;;10.55;78.73;99637.91;8530891;27;20095;-73
2022/06/14 00:34:46;;;;;;;10.32;2.17;;;;;;;10.50;78.79;99632.59;8495395;27;20038;-73
2022/06/14 00:38:47;;;;;;;6.32;2.00;;;;;;;10.51;78.49;99639.59;8510511;27;20092;-72
2022/06/14 00:42:48;;;;;;;9.43;2.33;;;;;;;10.42;78.93;99644.03;8515718;27;20448;-73
2022/06/14 00:46:55;;;;;;;6.95;2.35;;;;;;;10.37;79.01;99652.22;8501856;27;20055;-72
2022/06/14 00:51:08;;;;;;;7.63;2.20;;;;;;;10.31;79.36;99653.38;8519908;27;20047;-72
2022/06/14 00:55:17;;;;;;;6.65;2.17;;;;;;;10.31;79.32;99653.38;8526550;27;20054;-73
2022/06/14 00:59:25;;;;;;;8.07;2.10;;;;;;;10.31;79.23;99653.38;8516865;27;20129;-72
2022/06/14 01:03:32;;;;;;;7.30;1.90;;;;;;;10.32;78.82;99655.00;8467909;27;20054;-73
2022/06/14 01:07:39;;;;;;;7.57;2.00;;;;;;;10.30;78.94;99651.81;8516334;27;20054;-72
2022/06/14 01:11:49;;;;;;;5.32;1.90;;;;;;;10.26;78.84;99656.16;8512218;27;20142;-72
2022/06/14 01:15:54;;;;;;;4.72;1.70;;;;;;;10.22;79.07;99655.16;8494788;27;20054;-72
2022/06/14 01:19:55;;;;;;;5.68;2.05;;;;;;;10.17;79.30;99663.31;8531019;27;20054;-72
2022/06/14 01:23:56;;;;;;;5.75;1.90;;;;;;;10.16;79.42;99672.50;8526708;27;20416;-72
2022/06/14 01:27:58;;;;;;;7.45;1.83;;;;;;;10.12;79.22;99671.47;8480151;27;20067;-73
2022/06/14 01:32:00;;;;;;;7.40;2.03;;;;;;;10.06;79.81;99675.31;8515093;27;20058;-73
2022/06/14 01:36:07;;;;;;;6.13;1.77;;;;;;;10.02;80.09;99682.41;8467640;27;20129;-72
2022/06/14 01:40:09;;;;;;;24.85;2.63;;;;;;;9.96;80.30;99683.56;8509390;27;20051;-72
2022/06/14 01:44:18;;;;;;;4.13;2.03;;;;;;;9.93;80.79;99673.38;8469286;27;20127;-72
2022/06/14 01:48:19;;;;;;;2.47;1.73;;;;;;;9.88;80.81;99681.53;8505414;27;20091;-73
2022/06/14 01:52:35;;;;;;;5.18;1.80;;;;;;;9.81;80.89;99681.06;8524612;27;20076;-73
2022/06/14 01:56:58;;;;;;;4.95;1.77;;;;;;;9.72;80.94;99684.44;8529985;27;20051;-74
2022/06/14 02:01:11;;;;;;;7.32;1.60;;;;;;;9.67;81.42;99683.69;8492803;27;20043;-72
2022/06/14 02:05:25;;;;;;;3.05;1.70;;;;;;;9.60;81.63;99681.31;8522063;27;20054;-73
2022/06/14 02:09:52;;;;;;;9.45;2.00;;;;;;;9.53;81.35;99693.53;8517195;27;20507;-73
2022/06/14 02:14:21;;;;;;;4.15;1.67;;;;;;;9.46;81.52;99685.81;8414683;28;20056;-72
2022/06/14 02:18:45;;;;;;;3.55;1.70;;;;;;;9.40;81.66;99697.75;8339828;28;20076;-72
2022/06/14 02:22:51;;;;;;;7.15;2.00;;;;;;;9.35;81.55;99697.78;8289146;28;20054;-73
2022/06/14 02:26:58;;;;;;;3.50;1.77;;;;;;;9.30;82.12;99700.53;8270080;28;20050;-73
2022/06/14 02:31:03;;;;;;;4.13;1.38;;;;;;;9.29;82.06;99712.41;8253192;28;20061;-72
2022/06/14 02:35:11;;;;;;;5.85;1.85;;;;;;;9.27;82.21;99709.19;8286001;28;20043;-73
2022/06/14 02:39:18;;;;;;;3.67;1.55;;;;;;;9.26;81.81;99712.97;8267670;28;20057;-72
2022/06/14 02:43:28;;;;;;;3.88;1.75;;;;;;;9.25;82.21;99716.78;8290850;28;20072;-72
2022/06/14 02:47:56;;;;;;;2.47;1.38;;;;;;;9.23;82.17;99716.25;8261310;28;20065;-72
2022/06/14 02:52:05;;;;;;;5.60;1.70;;;;;;;9.22;82.39;99717.31;8191259;28;20071;-73
2022/06/14 02:56:12;;;;;;;2.67;1.48;;;;;;;9.21;82.31;99713.81;8279013;28;20050;-73
2022/06/14 03:00:36;;;;;;;5.35;1.60;;;;;;;9.18;82.34;99727.06;8366427;28;20051;-73
2022/06/14 03:05:29;;;;;;;4.38;1.60;;;;;;;9.17;82.67;99730.84;8381268;28;20410;-73
2022/06/14 03:09:48;;;;;;;6.53;1.48;;;;;;;9.19;82.47;99734.06;8254003;28;20065;-72
2022/06/14 03:14:22;;;;;;;3.92;1.35;;;;;;;9.17;82.74;99741.63;8241561;28;20049;-72
2022/06/14 03:18:41;;;;;;;2.90;1.50;;;;;;;9.18;82.80;99743.25;8251096;28;20080;-73
2022/06/14 03:23:12;;;;;;;13.35;1.58;;;;;;;9.21;82.99;99742.66;8263811;28;20170;-72
2022/06/14 03:27:20;;;;;;;5.93;1.60;;;;;;;9.26;82.98;99751.50;8277184;28;20050;-73
2022/06/14 03:31:32;;;;;;;9.07;1.53;;;;;;;9.36;82.71;99755.97;8347144;28;20399;-72
2022/06/14 03:35:40;;;;;;;3.58;1.70;;;;;;;9.53;82.55;99761.75;8347218;28;20235;-73
2022/06/14 03:39:46;;;;;;;6.47;2.22;;;;;;;9.73;82.39;99761.53;8357175;28;20103;-73
2022/06/14 03:43:48;;;;;;;3.22;1.55;;;;;;;9.94;82.74;99761.31;8363560;28;20490;-73
2022/06/14 03:47:49;;;;;;;4.43;1.60;;;;;;;10.14;82.52;99766.47;8456552;28;20039;-72
2022/06/14 03:51:50;;;;;;;4.10;1.55;;;;;;;10.31;82.53;99766.78;8423492;28;20055;-73
2022/06/14 03:56:06;;;;;;;3.63;1.60;;;;;;;10.47;82.38;99762.78;8416349;28;20044;-73
2022/06/14 04:00:13;;;;;;;4.30;2.08;;;;;;;10.64;82.13;99769.56;8438076;28;20044;-73
2022/06/14 04:04:47;;;;;;;2.72;1.60;;;;;;;10.79;81.92;99763.91;8446479;28;20048;-73
2022/06/14 04:08:57;;;;;;;8.90;2.97;;;;;;;10.93;81.63;99767.50;8447205;28;20116;-73
2022/06/14 04:13:07;;;;;;;5.78;1.60;;;;;;;11.10;81.25;99766.97;8443517;28;20048;-73
2022/06/14 04:17:22;;;;;;;4.25;1.45;;;;;;;11.25;80.59;99770.22;8418707;28;20047;-73
2022/06/14 04:21:35;;;;;;;5.85;1.95;;;;;;;11.34;80.91;99768.41;8443274;28;20048;-73
2022/06/14 04:26:11;;;;;;;3.85;1.30;;;;;;;11.34;81.04;99768.41;8462530;27;20047;-73
2022/06/14 04:30:17;;;;;;;2.80;1.40;;;;;;;11.43;80.65;99774.75;8351289;28;20141;-73
2022/06/14 04:34:22;;;;;;;5.57;1.33;;;;;;;11.55;80.04;99778.88;8343398;28;20083;-73
2022/06/14 04:38:33;;;;;;;1.75;1.23;;;;;;;11.62;79.86;99773.88;8340468;28;20064;-72
2022/06/14 04:42:58;;;;;;;7.10;1.83;;;;;;;11.55;80.12;99773.47;8336467;28;20103;-72
2022/06/14 04:47:06;;;;;;;3.25;1.40;;;;;;;11.51;80.09;99783.28;8343711;28;20055;-73
2022/06/14 04:51:13;;;;;;;5.32;1.50;;;;;;;11.68;80.06;99772.69;8343071;28;20155;-72
2022/06/14 04:55:28;;;;;;;3.72;1.70;;;;;;;11.96;78.79;99778.91;8355443;28;20045;-73
2022/06/14 04:59:39;;;;;;;4.82;1.45;;;;;;;12.04;78.12;99775.53;8343229;28;20053;-73
2022/06/14 05:03:55;;;;;;;3.38;1.60;;;;;;;11.96;78.08;99779.72;8359400;28;20045;-72
2022/06/14 05:07:55;;;;;;;6.30;1.63;;;;;;;11.93;78.54;99785.75;8495047;27;20050;-72
2022/06/14 05:12:24;;;;;;;5.22;1.55;;;;;;;12.07;77.97;99781.13;8524041;27;20046;-72
2022/06/14 05:16:33;;;;;;;7.90;1.63;;;;;;;12.21;77.21;99776.50;8467422;27;20046;-72
2022/06/14 05:20:42;;;;;;;3.25;1.60;;;;;;;12.37;77.01;99770.78;8513028;27;20496;-72
2022/06/14 05:24:43;;;;;;;4.28;1.70;;;;;;;12.44;75.81;99773.84;8526103;27;20054;-73
2022/06/14 05:29:06;;;;;;;3.17;1.63;;;;;;;12.43;76.32;99773.03;8472894;27;20050;-73
2022/06/14 05:33:39;;;;;;;5.53;1.52;;;;;;;12.49;75.78;99776.44;8497631;27;20035;-72
2022/06/14 05:37:47;;;;;;;5.30;2.13;;;;;;;12.57;76.01;99784.69;8457643;27;20476;-73
2022/06/14 05:41:56;;;;;;;7.80;1.90;;;;;;;12.70;75.66;99788.44;8517109;27;20172;-73
2022/06/14 05:46:29;;;;;;;8.02;1.60;;;;;;;12.80;74.43;99777.34;8512055;27;20043;-73
2022/06/14 05:50:36;;;;;;;5.57;1.75;;;;;;;12.83;74.60;99776.75;8510532;27;20047;-72
2022/06/14 05:54:47;;;;;;;7.25;1.45;;;;;;;12.97;74.59;99782.91;8477094;27;20043;-73
2022/06/14 05:58:56;;;;;;;4.13;1.33;;;;;;;13.08;74.41;99789.69;8514057;27;20053;-72
2022/06/14 06:03:18;;;;;;;4.50;1.63;;;;;;;13.21;74.34;99776.41;8449827;27;20038;-72
2022/06/14 06:07:24;;;;;;;4.50;1.70;;;;;;;13.32;73.75;99783.19;8513620;27;20335;-73
2022/06/14 06:11:28;;;;;;;8.10;2.10;;;;;;;13.42;73.34;99788.34;8503374;27;20509;-72
2022/06/14 06:15:33;;;;;;;8.48;1.67;;;;;;;13.45;72.55;99793.16;8529682;27;20451;-73
2022/06/14 06:19:44;;;;;;;12.40;1.60;;;;;;;13.47;72.85;99797.16;8524811;27;20043;-73
2022/06/14 06:23:51;;;;;;;7.85;1.80;;;;;;;13.67;72.82;99801.25;8510430;27;20070;-73
2022/06/14 06:27:59;;;;;;;9.63;1.83;;;;;;;13.72;72.06;99803.84;8524289;27;20054;-72
2022/06/14 06:32:01;;;;;;;5.65;1.50;;;;;;;13.79;72.13;99804.19;8507892;27;20039;-72
2022/06/14 06:36:23;;;;;;;6.07;1.70;;;;;;;13.92;70.98;99803.28;8536880;27;20390;-73
2022/06/14 06:40:25;;;;;;;5.15;1.95;;;;;;;13.96;70.08;99806.97;8509628;27;20138;-72
2022/06/14 06:44:52;;;;;;;8.25;1.52;;;;;;;13.94;70.40;99806.50;8511031;27;20055;-72
2022/06/14 06:48:56;;;;;;;6.97;1.67;;;;;;;13.93;69.69;99799.44;8385453;28;20193;-72
2022/06/14 06:53:03;;;;;;;9.02;1.40;;;;;;;14.17;67.52;99798.25;8386982;28;20049;-72
2022/06/14 06:57:05;;;;;;;6.68;1.67;;;;;;;14.25;68.36;99795.56;8357761;28;20072;-71
2022/06/14 07:01:12;;;;;;;5.68;1.50;;;;;;;14.48;68.58;99809.88;8384223;28;20155;-73
2022/06/14 07:05:14;;;;;;;5.97;1.55;;;;;;;14.46;68.54;99800.41;8378951;28;20048;-72
2022/06/14 07:09:25;;;;;;;8.23;2.00;;;;;;;14.52;68.34;99805.41;8395772;28;20050;-72
2022/06/14 07:13:44;;;;;;;10.43;1.23;;;;;;;14.71;67.10;99803.16;8339744;28;20086;-72
2022/06/14 07:18:13;;;;;;;4.30;1.60;;;;;;;14.99;65.90;99797.41;8375096;28;20037;-72
2022/06/14 07:22:21;;;;;;;9.57;1.63;;;;;;;15.07;66.25;99799.31;8329551;28;20049;-73
2022/06/14 07:26:29;;;;;;;5.53;1.60;;;;;;;15.23;65.19;99797.69;8421426;28;20048;-73
2022/06/14 07:30:45;;;;;;;7.25;1.80;;;;;;;15.47;65.42;99798.00;8439806;28;20039;-73
2022/06/14 07:34:47;;;;;;;6.80;1.70;;;;;;;15.57;63.67;99802.31;8462392;28;20051;-72
2022/06/14 07:38:48;;;;;;;10.38;1.65;;;;;;;15.72;62.69;99798.25;8462058;28;20052;-73
2022/06/14 07:43:06;;;;;;;5.63;1.40;;;;;;;15.75;63.20;99792.19;8462191;28;20585;-74
2022/06/14 07:47:38;;;;;;;6.43;1.50;;;;;;;15.94;59.22;99789.84;8462264;28;20048;-72
2022/06/14 07:51:47;;;;;;;10.07;1.58;;;;;;;15.99;59.86;99797.84;8428584;28;20413;-73
2022/06/14 07:55:49;;;;;;;9.85;1.70;;;;;;;15.81;60.48;99804.50;8442324;28;20553;-73
2022/06/14 08:01:07;;;;;;;8.13;1.45;;;;;;;15.76;60.59;99810.09;8515774;27;20054;-73
2022/06/14 08:04:26;;;;;;;11.05;2.25;;;;;;;16.04;60.38;99805.81;8533839;27;20497;-73
2022/06/14 08:08:31;;;;;;;4.75;1.30;;;;;;;16.28;59.87;99800.59;8521990;27;20047;-74
2022/06/14 08:12:55;;;;;;;4.78;1.40;;;;;;;16.24;58.40;99805.06;8516600;27;20054;-73
2022/06/14 08:16:57;;;;;;;5.93;1.58;;;;;;;15.99;59.68;99803.28;8349932;28;20069;-74
2022/06/14 08:21:09;;;;;;;6.25;1.35;;;;;;;15.76;59.65;99810.09;8357998;28;20049;-73
2022/06/14 08:25:16;;;;;;;6.03;1.40;;;;;;;15.94;59.64;99808.91;8330370;28;20491;-73
2022/06/14 08:29:30;;;;;;;6.70;1.10;;;;;;;16.42;57.68;99801.13;8355925;28;20127;-72
2022/06/14 08:33:49;;;;;;;8.10;1.23;;;;;;;16.70;56.42;99795.22;8346430;28;20491;-72
2022/06/14 08:38:05;;;;;;;3.77;1.20;;;;;;;16.83;55.63;99805.03;8360094;28;20076;-72
2022/06/14 08:42:17;;;;;;;3.33;1.27;;;;;;;16.73;51.76;99799.97;8343588;28;20057;-72
2022/06/14 08:46:38;;;;;;;4.95;1.50;;;;;;;16.84;51.44;99809.38;8359982;28;20064;-73
2022/06/14 08:50:42;;;;;;;5.28;1.58;;;;;;;16.89;51.94;99803.72;8336648;28;20515;-74
2022/06/14 08:54:56;;;;;;;5.32;1.35;;;;;;;16.68;52.54;99802.91;8506285;27;20492;-72
2022/06/14 08:59:34;;;;;;;3.85;1.33;;;;;;;16.93;54.32;99807.34;8517498;27;20042;-72
2022/06/14 09:03:35;;;;;;;9.50;1.65;;;;;;;16.76;52.67;99804.78;8517854;27;20061;-72
2022/06/14 09:07:39;;;;;;;3.65;1.15;;;;;;;16.99;50.56;99811.50;8495319;27;20042;-72
2022/06/14 09:11:54;;;;;;;6.38;1.73;;;;;;;17.42;49.97;99791.19;8507410;27;20130;-72
2022/06/14 09:16:11;;;;;;;2.92;1.30;;;;;;;17.84;47.67;99800.84;8478862;27;20051;-73
2022/06/14 09:20:26;;;;;;;8.85;1.58;;;;;;;17.43;49.41;99795.50;8471171;27;20054;-73
2022/06/14 09:24:54;;;;;;;4.93;1.17;;;;;;;16.83;48.98;99799.59;8531349;27;20415;-73
2022/06/14 09:29:21;;;;;;;2.47;0.93;;;;;;;17.24;49.98;99788.63;8482394;27;20269;-73
2022/06/14 09:33:43;;;;;;;2.40;0.95;;;;;;;17.96;48.29;99798.13;8503131;27;20050;-73
2022/06/14 09:38:26;;;;;;;2.50;0.68;;;;;;;17.88;45.01;99807.22;8501546;27;20042;-73
2022/06/14 09:42:38;;;;;;;3.92;1.20;;;;;;;17.25;45.31;99811.25;8350088;28;20053;-73
2022/06/14 09:47:02;;;;;;;6.95;1.00;;;;;;;17.67;44.75;99792.84;8358061;28;20431;-73
2022/06/14 09:51:25;;;;;;;3.95;1.08;;;;;;;17.60;45.27;99800.81;8358015;28;20095;-73
2022/06/14 09:55:25;;;;;;;6.05;0.98;;;;;;;17.05;46.80;99818.34;8357809;28;20067;-73
2022/06/14 09:59:35;;;;;;;3.45;0.75;;;;;;;17.27;44.81;99793.41;8357682;28;20045;-73
2022/06/14 10:03:43;;;;;;;;;;;;;;;18.08;44.07;99800.84;8358132;28;20061;-73
2022/06/14 10:08:26;;;;;;;5.87;1.20;;;;;;;17.82;43.56;99811.31;8313737;28;19928;-74
2022/06/14 10:12:42;;;;;;;6.78;1.15;;;;;;;17.86;44.28;99809.53;8291723;28;20135;-72
2022/06/14 10:17:02;;;;;;;3.17;0.82;;;;;;;18.23;41.54;99807.59;8304152;28;20060;-72
2022/06/14 10:21:12;;;;;;;3.22;0.80;;;;;;;17.95;41.31;99802.00;8423950;28;20056;-72
2022/06/14 10:25:33;;;;;;;7.10;1.17;;;;;;;17.78;43.67;99802.22;8423912;28;20525;-73
2022/06/14 10:29:51;;;;;;;4.50;1.15;;;;;;;17.72;44.78;99798.09;8390136;28;20045;-73
2022/06/14 10:34:02;;;;;;;3.58;1.15;;;;;;;18.24;45.82;99794.72;8390414;28;20159;-74
2022/06/14 10:38:19;;;;;;;6.05;1.15;;;;;;;18.56;40.82;99793.78;8390161;28;20047;-74
2022/06/14 10:42:48;;;;;;;2.85;0.95;;;;;;;18.92;41.68;99796.44;8373534;28;20045;-73
2022/06/14 10:47:01;;;;;;;2.95;0.90;;;;;;;18.72;39.71;99780.97;8392414;28;20082;-73
2022/06/14 10:51:17;;;;;;;4.82;0.70;;;;;;;18.86;40.82;99775.16;8460993;28;20105;-72
2022/06/14 10:55:35;;;;;;;5.22;1.08;;;;;;;18.96;38.13;99785.59;8461219;28;20490;-73
2022/06/14 11:00:03;;;;;;;5.63;1.00;;;;;;;19.25;39.66;99776.22;8461442;28;20417;-73
2022/06/14 11:04:18;;;;;;;7.25;0.90;;;;;;;19.28;39.55;99770.06;8473456;28;20075;-73
2022/06/14 11:08:25;;;;;;;4.30;0.80;;;;;;;18.78;40.02;99785.06;8450595;28;20051;-73
2022/06/14 11:12:57;;;;;;;4.35;1.20;;;;;;;18.60;41.69;99783.75;8460807;28;20048;-73
2022/06/14 11:17:12;;;;;;;4.18;1.05;;;;;;;18.93;40.20;99784.34;8449143;28;20051;-74
2022/06/14 11:21:43;;;;;;;6.13;1.30;;;;;;;19.18;38.88;99771.38;8416969;28;20048;-73
2022/06/14 11:26:18;;;;;;;3.47;0.90;;;;;;;19.88;38.44;99774.38;8467143;28;20427;-74
2022/06/14 11:30:26;;;;;;;4.90;1.00;;;;;;;20.13;38.12;99777.72;8440006;27;20475;-73
2022/06/14 11:35:04;;;;;;;5.35;1.38;;;;;;;19.76;39.17;99769.78;8481201;27;20043;-73
2022/06/14 11:39:17;;;;;;;3.85;1.27;;;;;;;19.37;39.72;99774.22;8488547;27;20055;-73
2022/06/14 11:43:45;;;;;;;4.40;1.23;;;;;;;19.11;39.17;99775.84;8466413;28;20097;-74
2022/06/14 11:47:55;;;;;;;4.03;0.82;;;;;;;18.86;39.61;99781.41;8322503;28;20140;-72
2022/06/14 11:52:20;;;;;;;3.97;1.20;;;;;;;19.05;40.01;99777.22;8314726;28;20048;-72
2022/06/14 11:56:42;;;;;;;6.32;1.20;;;;;;;19.11;39.20;99781.31;8328507;28;20455;-73
2022/06/14 12:00:52;;;;;;;7.55;1.27;;;;;;;19.30;39.66;99773.22;8328467;28;20057;-73
2022/06/14 12:05:01;;;;;;;1.85;1.05;;;;;;;19.86;39.19;99762.19;8328243;28;20057;-74
2022/06/14 12:09:24;;;;;;;4.78;0.90;;;;;;;19.67;39.47;99777.38;8328089;28;20050;-74
2022/06/14 12:13:34;;;;;;;2.17;0.90;;;;;;;19.89;38.24;99777.91;8314094;28;20534;-74
2022/06/14 12:17:51;;;;;;;5.38;1.15;;;;;;;20.40;37.60;99765.84;8325358;28;20557;-74
2022/06/14 12:26:38;;;;;;;3.55;1.10;;;;;;;20.33;36.32;99765.69;8495418;27;20062;-72
2022/06/14 12:30:41;;;;;;;5.45;1.17;;;;;;;20.61;37.29;99763.56;8525342;27;20125;-74
2022/06/14 12:35:35;;;;;;;2.38;1.10;;;;;;;20.52;36.43;99779.44;8515017;27;20043;-73
2022/06/14 12:39:47;;;;;;;3.85;0.93;;;;;;;20.62;36.80;99773.38;8280451;28;20133;-73
2022/06/14 12:44:09;;;;;;;8.80;1.25;;;;;;;20.84;35.80;99771.06;8245249;28;20050;-74
2022/06/14 12:48:27;;;;;;;4.32;1.13;;;;;;;21.12;37.80;99757.13;8280235;28;20060;-73
2022/06/14 12:52:40;;;;;;;6.75;1.20;;;;;;;21.51;36.94;99755.16;8293998;28;20046;-73
2022/06/14 12:56:53;;;;;;;4.78;1.30;;;;;;;21.26;37.27;99768.41;8294093;28;20046;-74
2022/06/14 13:01:13;;;;;;;2.95;1.20;;;;;;;21.34;37.44;99765.44;8293682;28;20046;-74
2022/06/14 13:05:19;;;;;;;4.57;1.05;;;;;;;21.10;36.20;99765.72;8293933;28;20050;-73
2022/06/14 13:09:31;;;;;;;5.68;1.30;;;;;;;21.18;35.47;99767.50;8301630;28;20049;-74
2022/06/14 13:13:55;;;;;;;4.72;1.50;;;;;;;20.93;35.55;99757.94;8357406;27;20049;-74
2022/06/14 13:17:59;;;;;;;5.28;1.02;;;;;;;20.75;35.74;99748.53;8345459;28;20049;-73
2022/06/14 13:22:34;;;;;;;4.13;1.10;;;;;;;21.18;36.53;99761.22;8344589;28;20061;-73
2022/06/14 13:26:50;;;;;;;7.60;1.50;;;;;;;21.48;36.20;99771.19;8358454;28;20061;-73
2022/06/14 13:31:20;;;;;;;4.45;1.30;;;;;;;21.39;35.88;99759.66;8358588;28;20368;-73
2022/06/14 13:35:26;;;;;;;6.85;1.20;;;;;;;21.47;35.77;99779.78;8342113;28;20439;-74
2022/06/14 13:39:42;;;;;;;7.85;1.30;;;;;;;22.06;34.56;99756.47;8343850;28;20053;-73
2022/06/14 13:44:06;;;;;;;5.55;1.58;;;;;;;23.54;33.41;99763.13;8358421;28;20053;-73
2022/06/14 13:48:40;;;;;;;5.55;1.20;;;;;;;23.80;32.62;99760.19;8343677;28;20099;-73
2022/06/14 13:53:00;;;;;;;7.13;1.23;;;;;;;24.00;32.51;99775.34;8306006;28;20327;-73
2022/06/14 13:57:20;;;;;;;6.38;1.38;;;;;;;23.76;33.16;99770.41;8403083;28;20540;-73
2022/06/14 14:01:39;;;;;;;10.45;1.40;;;;;;;24.33;31.83;99759.81;8441149;28;20492;-74
2022/06/14 14:05:55;;;;;;;3.35;1.10;;;;;;;22.94;33.06;99774.25;8440773;28;20070;-73
2022/06/14 14:10:19;;;;;;;5.88;1.60;;;;;;;24.62;30.24;99767.13;8457798;28;20123;-74
2022/06/14 14:14:20;;;;;;;6.20;1.80;;;;;;;26.12;29.32;99774.59;8320541;28;20050;-73
2022/06/14 14:18:27;;;;;;;5.75;1.67;;;;;;;26.21;28.86;99771.44;8314217;28;20045;-73
2022/06/14 14:22:37;;;;;;;6.10;1.38;;;;;;;26.10;29.88;99782.50;8351035;28;20041;-73
2022/06/14 14:26:45;;;;;;;5.43;1.47;;;;;;;27.53;28.55;99783.69;8390217;28;20156;-73
2022/06/14 14:30:46;;;;;;;10.07;2.25;;;;;;;28.25;26.44;99773.59;8377311;28;20410;-75
2022/06/14 14:35:24;;;;;;;11.73;1.67;;;;;;;28.30;27.43;99770.38;8389273;28;20052;-74
2022/06/14 14:39:31;;;;;;;7.40;1.63;;;;;;;28.34;25.13;99782.25;8330235;28;20143;-75
2022/06/14 14:43:35;;;;;;;4.88;1.50;;;;;;;27.46;26.58;99789.22;8337252;28;20131;-74
2022/06/14 14:48:09;;;;;;;4.63;1.38;;;;;;;26.72;28.04;99768.16;8345574;28;20041;-73
2022/06/14 14:52:13;;;;;;;7.95;1.60;;;;;;;27.38;27.86;99771.06;8462148;27;20043;-74
2022/06/14 14:56:21;;;;;;;5.85;1.10;;;;;;;28.46;26.48;99763.06;8488936;27;20079;-73
2022/06/14 15:09:26;;;;;;;6.93;1.25;;;;;;;30.56;23.79;99755.25;8467536;27;20069;-74
2022/06/14 15:13:48;;;;;;;5.45;1.42;;;;;;;28.87;24.99;99757.44;8484449;27;20047;-74
2022/06/14 15:22:29;;;;;;;4.03;1.20;;;;;;;26.09;27.91;99753.25;8512125;27;20420;-74
2022/06/14 15:26:30;;;;;;;6.20;1.70;;;;;;;25.71;28.76;99759.56;8474505;27;20043;-73
2022/06/14 15:30:44;;;;;;;5.10;1.25;;;;;;;25.75;28.12;99760.38;8496163;27;20042;-74
2022/06/14 15:34:49;;;;;;;4.72;1.30;;;;;;;25.75;27.91;99749.31;8510049;27;20054;-74
2022/06/14 15:39:15;;;;;;;5.18;1.35;;;;;;;25.71;28.69;99748.50;8503923;27;20141;-74
2022/06/14 15:43:26;;;;;;;7.28;1.48;;;;;;;25.74;29.39;99747.75;8399137;28;20052;-74
2022/06/14 15:47:38;;;;;;;5.38;1.63;;;;;;;25.58;28.91;99754.44;8397481;28;20048;-74
2022/06/14 15:51:43;;;;;;;4.40;1.38;;;;;;;23.94;30.97;99749.31;8395819;28;20105;-73
2022/06/14 15:55:49;;;;;;;7.22;1.40;;;;;;;23.47;32.04;99752.03;8348469;28;20041;-74
2022/06/14 16:00:06;;;;;;;5.05;1.35;;;;;;;23.32;32.06;99751.06;8393882;28;20048;-75
2022/06/14 16:04:13;;;;;;;7.18;1.30;;;;;;;23.12;32.31;99764.22;8393567;28;20045;-74
2022/06/14 16:08:21;;;;;;;4.05;1.13;;;;;;;22.65;32.78;99753.78;8394111;28;20128;-73
2022/06/14 16:12:35;;;;;;;3.53;1.20;;;;;;;22.40;34.12;99765.63;8392968;28;20168;-74
2022/06/14 16:16:36;;;;;;;7.25;1.45;;;;;;;22.06;34.16;99757.25;8393764;28;20044;-75
2022/06/14 16:20:37;;;;;;;3.95;1.23;;;;;;;22.25;33.71;99775.66;8490223;27;20080;-75
2022/06/14 16:24:39;;;;;;;8.05;1.45;;;;;;;21.80;34.90;99768.22;8498416;27;20038;-74
2022/06/14 16:28:46;;;;;;;5.05;1.15;;;;;;;21.61;33.98;99768.28;8462262;27;20523;-74
2022/06/14 16:32:53;;;;;;;4.93;1.33;;;;;;;22.51;32.89;99777.59;8518905;27;20042;-73
2022/06/14 16:37:16;;;;;;;7.55;1.48;;;;;;;22.32;33.39;99776.53;8509918;27;20099;-74
2022/06/14 16:41:17;;;;;;;7.35;1.30;;;;;;;22.51;32.73;99772.88;8526659;27;20065;-74
2022/06/14 16:45:48;;;;;;;7.80;1.50;;;;;;;24.01;30.13;99776.13;8509364;27;20043;-74
2022/06/14 16:49:51;;;;;;;3.88;1.13;;;;;;;25.61;28.39;99773.00;8506326;27;20054;-75
2022/06/14 16:54:11;;;;;;;10.38;1.58;;;;;;;26.44;27.69;99775.34;8476324;27;20456;-74
2022/06/14 16:58:24;;;;;;;8.65;1.50;;;;;;;24.98;30.03;99778.34;8530397;27;20050;-74
2022/06/14 17:03:07;;;;;;;4.15;0.82;;;;;;;22.91;32.17;99769.50;8505424;27;20043;-74
2022/06/14 17:07:17;;;;;;;9.45;1.70;;;;;;;21.67;34.20;99764.06;8509353;27;20412;-74
2022/06/14 17:11:42;;;;;;;5.93;1.42;;;;;;;20.63;35.57;99780.47;8475686;27;20051;-75
2022/06/14 17:15:56;;;;;;;5.13;1.38;;;;;;;20.18;36.87;99769.22;8509506;27;20043;-75
2022/06/14 17:20:32;;;;;;;4.32;1.33;;;;;;;19.95;37.52;99765.53;8510829;27;20065;-75
2022/06/14 17:24:43;;;;;;;6.75;1.50;;;;;;;19.58;37.92;99768.53;8342444;28;20045;-74
2022/06/14 17:33:09;;;;;;;2.70;1.13;;;;;;;19.06;38.57;99774.16;8293873;28;20109;-73
2022/06/14 17:37:16;;;;;;;3.95;1.15;;;;;;;18.81;39.36;99778.94;8336863;28;20049;-73
2022/06/14 17:41:30;;;;;;;3.13;1.00;;;;;;;18.75;39.60;99774.84;8354579;28;20400;-73
2022/06/14 17:45:36;;;;;;;7.05;1.33;;;;;;;18.61;39.73;99779.91;8336942;28;20046;-73
2022/06/14 17:49:49;;;;;;;3.65;0.90;;;;;;;18.46;40.07;99783.28;8339288;28;20049;-73
2022/06/14 17:54:08;;;;;;;3.65;1.20;;;;;;;18.32;40.75;99782.84;8312556;28;20051;-74
2022/06/14 17:58:27;;;;;;;8.68;0.98;;;;;;;18.26;40.92;99784.22;8342618;28;20042;-74
2022/06/14 18:02:28;;;;;;;;;;;;;;;18.08;41.46;99779.00;8491586;27;20130;-72
2022/06/14 18:06:53;;;;;;;7.93;1.38;;;;;;;17.95;42.34;99773.88;8481733;27;20425;-72
2022/06/14 18:11:07;;;;;;;7.05;1.50;;;;;;;17.88;42.76;99779.09;8511285;27;20043;-73
2022/06/14 18:15:21;;;;;;;3.97;0.98;;;;;;;17.75;42.18;99772.84;8502256;27;20412;-72
2022/06/14 18:23:59;;;;;;;3.97;1.33;;;;;;;17.40;44.12;99780.59;8513999;27;20100;-74
2022/06/14 18:28:00;;;;;;;7.65;1.08;;;;;;;17.29;45.11;99785.69;8497054;27;20480;-73
2022/06/14 18:32:01;;;;;;;2.78;1.15;;;;;;;17.13;45.79;99787.44;8490597;27;20039;-73
2022/06/14 18:36:06;;;;;;;8.10;1.38;;;;;;;16.93;47.17;99782.81;8511082;27;20412;-73
2022/06/14 18:40:19;;;;;;;2.45;1.10;;;;;;;16.72;47.89;99787.47;8486384;27;20054;-73
2022/06/14 18:44:25;;;;;;;5.70;1.38;;;;;;;16.50;49.05;99785.06;8511455;27;20408;-73
2022/06/14 18:48:33;;;;;;;8.95;1.45;;;;;;;16.26;49.73;99791.94;8477506;27;20085;-72
2022/06/14 18:52:39;;;;;;;6.95;1.30;;;;;;;16.00;51.05;99794.78;8512718;27;20050;-73
2022/06/14 18:56:45;;;;;;;7.13;1.83;;;;;;;15.82;51.68;99792.44;8513823;27;20385;-73
2022/06/14 19:00:51;;;;;;;5.15;1.20;;;;;;;15.57;52.56;99797.69;8505532;27;20046;-73
2022/06/14 19:04:53;;;;;;;6.63;1.15;;;;;;;15.34;53.38;99798.97;8473500;27;20047;-73
2022/06/14 19:09:14;;;;;;;4.75;1.50;;;;;;;15.15;54.32;99801.25;8517608;27;20066;-73
2022/06/14 19:13:40;;;;;;;6.20;1.60;;;;;;;15.02;54.72;99807.66;8507320;27;20042;-72
2022/06/14 19:18:17;;;;;;;7.28;1.40;;;;;;;14.85;55.37;99810.38;8515689;27;20047;-73
2022/06/14 19:22:27;;;;;;;10.15;2.25;;;;;;;14.65;56.17;99812.59;8404633;28;20055;-72
2022/06/14 19:26:54;;;;;;;10.30;3.05;;;;;;;14.45;56.71;99815.94;8350812;28;1257744;-73
2022/06/14 19:31:10;;;;;;;27.73;7.38;;;;;;;14.26;57.76;99818.09;8326784;28;20049;-73
2022/06/14 19:35:20;;;;;;;26.38;8.55;;;;;;;14.10;58.47;99822.34;8328150;28;20163;-73
2022/06/14 19:39:28;;;;;;;22.52;7.90;;;;;;;14.02;58.81;99823.09;8325966;28;20049;-73
2022/06/14 19:43:33;;;;;;;30.85;7.00;;;;;;;13.83;59.62;99824.16;8309397;28;20065;-72
2022/06/14 19:47:42;;;;;;;20.85;6.00;;;;;;;13.66;60.19;99815.13;8333324;28;20404;-73
2022/06/14 19:51:47;;;;;;;19.38;6.43;;;;;;;13.54;61.04;99823.84;8329588;28;20050;-72
2022/06/14 19:55:55;;;;;;;30.60;9.95;;;;;;;13.40;61.58;99818.50;8295251;28;20380;-73
2022/06/14 19:59:57;;;;;;;33.15;11.73;;;;;;;13.32;62.04;99821.16;8396515;28;20059;-72
2022/06/14 20:04:16;;;;;;;26.08;6.90;;;;;;;13.11;62.52;99821.66;8410858;28;20044;-72
2022/06/14 20:08:20;;;;;;;18.77;4.88;;;;;;;12.94;63.17;99821.50;8509593;27;20051;-72
2022/06/14 20:12:21;;;;;;;17.05;5.22;;;;;;;12.83;63.73;99828.25;8534210;27;20038;-72
2022/06/14 20:16:39;;;;;;;10.25;4.07;;;;;;;12.76;64.24;99825.16;8458187;28;20070;-72
2022/06/14 20:20:45;;;;;;;9.07;2.90;;;;;;;12.67;64.49;99827.81;8455414;28;20051;-73